sensor_id;sensor_type;location;lat;lon;timestamp;P1;durP1;ratioP1;P2;durP2;ratioP2
80623;SDS011;69981;44.768;9.600;2023-05-19T00:01:11;3.97;;;1.33;;
80623;SDS011;69981;44.768;9.600;2023-05-19T00:03:50;2.63;;;1.10;;
80623;SDS011;69981;44.768;9.600;2023-05-19T00:06:20;6.82;;;1.45;;
80623;SDS011;69981;44.768;9.600;2023-05-19T00:08:48;4.43;;;1.13;;
80623;SDS011;69981;44.768;9.600;2023-05-19T00:11:15;3.55;;;1.35;;
80623;SDS011;69981;44.768;9.600;2023-05-19T00:13:41;4.43;;;1.42;;
80623;SDS011;69981;44.768;9.600;2023-05-19T00:16:07;5.22;;;1.67;;
80623;SDS011;69981;44.768;9.600;2023-05-19T00:18:35;6.85;;;1.70;;
80623;SDS011;69981;44.768;9.600;2023-05-19T00:21:01;4.43;;;1.50;;
80623;SDS011;69981;44.768;9.600;2023-05-19T00:23:29;3.42;;;1.50;;
80623;SDS011;69981;44.768;9.600;2023-05-19T00:25:55;5.25;;;1.30;;
80623;SDS011;69981;44.768;9.600;2023-05-19T00:28:20;4.20;;;1.70;;
80623;SDS011;69981;44.768;9.600;2023-05-19T00:30:46;3.35;;;1.23;;
80623;SDS011;69981;44.768;9.600;2023-05-19T00:33:11;3.47;;;1.48;;
80623;SDS011;69981;44.768;9.600;2023-05-19T00:35:37;5.80;;;1.60;;
80623;SDS011;69981;44.768;9.600;2023-05-19T00:38:07;4.75;;;1.33;;
80623;SDS011;69981;44.768;9.600;2023-05-19T00:40:34;3.17;;;1.40;;
80623;SDS011;69981;44.768;9.600;2023-05-19T00:43:00;2.65;;;1.35;;
80623;SDS011;69981;44.768;9.600;2023-05-19T00:45:27;3.47;;;1.40;;
80623;SDS011;69981;44.768;9.600;2023-05-19T00:47:53;3.70;;;1.88;;
80623;SDS011;69981;44.768;9.600;2023-05-19T00:50:19;2.88;;;1.40;;
80623;SDS011;69981;44.768;9.600;2023-05-19T00:52:44;4.47;;;1.20;;
80623;SDS011;69981;44.768;9.600;2023-05-19T00:55:10;3.08;;;1.38;;
80623;SDS011;69981;44.768;9.600;2023-05-19T00:57:39;2.95;;;1.42;;
80623;SDS011;69981;44.768;9.600;2023-05-19T01:00:06;4.25;;;1.50;;
80623;SDS011;69981;44.768;9.600;2023-05-19T01:02:38;4.75;;;1.52;;
80623;SDS011;69981;44.768;9.600;2023-05-19T01:05:05;2.70;;;1.10;;
80623;SDS011;69981;44.768;9.600;2023-05-19T01:07:32;4.32;;;1.50;;
80623;SDS011;69981;44.768;9.600;2023-05-19T01:09:57;3.10;;;1.33;;
80623;SDS011;69981;44.768;9.600;2023-05-19T01:12:26;3.78;;;1.50;;
80623;SDS011;69981;44.768;9.600;2023-05-19T01:14:53;3.10;;;1.40;;
80623;SDS011;69981;44.768;9.600;2023-05-19T01:19:59;2.88;;;1.27;;
80623;SDS011;69981;44.768;9.600;2023-05-19T01:30:44;3.72;;;1.42;;
80623;SDS011;69981;44.768;9.600;2023-05-19T01:33:15;2.70;;;1.30;;
80623;SDS011;69981;44.768;9.600;2023-05-19T01:35:43;3.40;;;1.48;;
80623;SDS011;69981;44.768;9.600;2023-05-19T01:38:10;3.15;;;1.23;;
80623;SDS011;69981;44.768;9.600;2023-05-19T01:40:40;4.93;;;1.75;;
80623;SDS011;69981;44.768;9.600;2023-05-19T01:43:08;4.20;;;1.60;;
80623;SDS011;69981;44.768;9.600;2023-05-19T01:45:36;4.50;;;1.25;;
80623;SDS011;69981;44.768;9.600;2023-05-19T01:48:03;5.05;;;1.50;;
80623;SDS011;69981;44.768;9.600;2023-05-19T01:50:29;3.83;;;1.50;;
80623;SDS011;69981;44.768;9.600;2023-05-19T01:52:55;3.65;;;1.40;;
80623;SDS011;69981;44.768;9.600;2023-05-19T01:55:21;3.70;;;1.50;;
80623;SDS011;69981;44.768;9.600;2023-05-19T02:08:20;5.03;;;1.70;;
80623;SDS011;69981;44.768;9.600;2023-05-19T02:10:50;3.92;;;1.50;;
80623;SDS011;69981;44.768;9.600;2023-05-19T02:13:21;4.38;;;1.60;;
80623;SDS011;69981;44.768;9.600;2023-05-19T02:15:52;4.50;;;1.50;;
80623;SDS011;69981;44.768;9.600;2023-05-19T02:18:19;6.32;;;1.65;;
80623;SDS011;69981;44.768;9.600;2023-05-19T02:20:49;3.75;;;1.60;;
80623;SDS011;69981;44.768;9.600;2023-05-19T02:23:14;4.03;;;1.50;;
80623;SDS011;69981;44.768;9.600;2023-05-19T02:25:40;3.25;;;1.60;;
80623;SDS011;69981;44.768;9.600;2023-05-19T02:28:06;3.20;;;1.50;;
80623;SDS011;69981;44.768;9.600;2023-05-19T02:30:32;3.03;;;1.42;;
80623;SDS011;69981;44.768;9.600;2023-05-19T02:32:58;4.90;;;1.75;;
80623;SDS011;69981;44.768;9.600;2023-05-19T02:35:24;5.03;;;1.95;;
80623;SDS011;69981;44.768;9.600;2023-05-19T02:37:50;4.03;;;1.58;;
80623;SDS011;69981;44.768;9.600;2023-05-19T02:40:16;4.13;;;2.00;;
80623;SDS011;69981;44.768;9.600;2023-05-19T02:42:42;4.28;;;1.83;;
80623;SDS011;69981;44.768;9.600;2023-05-19T02:45:08;4.60;;;1.77;;
80623;SDS011;69981;44.768;9.600;2023-05-19T02:47:33;5.95;;;1.88;;
80623;SDS011;69981;44.768;9.600;2023-05-19T02:49:59;3.97;;;1.60;;
80623;SDS011;69981;44.768;9.600;2023-05-19T02:52:25;4.40;;;1.70;;
80623;SDS011;69981;44.768;9.600;2023-05-19T02:54:50;6.13;;;1.70;;
80623;SDS011;69981;44.768;9.600;2023-05-19T02:57:16;3.40;;;1.42;;
80623;SDS011;69981;44.768;9.600;2023-05-19T02:59:41;4.80;;;1.50;;
80623;SDS011;69981;44.768;9.600;2023-05-19T03:02:07;3.92;;;1.65;;
80623;SDS011;69981;44.768;9.600;2023-05-19T03:04:32;3.17;;;1.35;;
80623;SDS011;69981;44.768;9.600;2023-05-19T03:07:06;3.97;;;1.95;;
80623;SDS011;69981;44.768;9.600;2023-05-19T03:09:34;3.88;;;1.88;;
80623;SDS011;69981;44.768;9.600;2023-05-19T03:12:03;4.43;;;1.90;;
80623;SDS011;69981;44.768;9.600;2023-05-19T03:14:32;3.83;;;1.60;;
80623;SDS011;69981;44.768;9.600;2023-05-19T03:16:58;5.57;;;2.15;;
80623;SDS011;69981;44.768;9.600;2023-05-19T03:19:25;4.22;;;1.63;;
80623;SDS011;69981;44.768;9.600;2023-05-19T03:21:51;5.95;;;1.77;;
80623;SDS011;69981;44.768;9.600;2023-05-19T03:24:17;4.63;;;1.85;;
80623;SDS011;69981;44.768;9.600;2023-05-19T03:26:43;4.03;;;1.75;;
80623;SDS011;69981;44.768;9.600;2023-05-19T03:29:08;3.75;;;1.45;;
80623;SDS011;69981;44.768;9.600;2023-05-19T03:31:35;4.00;;;1.90;;
80623;SDS011;69981;44.768;9.600;2023-05-19T03:34:02;5.15;;;1.70;;
80623;SDS011;69981;44.768;9.600;2023-05-19T03:36:28;3.78;;;1.40;;
80623;SDS011;69981;44.768;9.600;2023-05-19T03:41:22;3.28;;;1.95;;
80623;SDS011;69981;44.768;9.600;2023-05-19T03:43:48;4.97;;;1.63;;
80623;SDS011;69981;44.768;9.600;2023-05-19T03:46:14;3.70;;;1.67;;
80623;SDS011;69981;44.768;9.600;2023-05-19T03:48:58;5.30;;;1.60;;
80623;SDS011;69981;44.768;9.600;2023-05-19T03:51:38;3.72;;;1.60;;
80623;SDS011;69981;44.768;9.600;2023-05-19T03:54:20;6.28;;;1.80;;
80623;SDS011;69981;44.768;9.600;2023-05-19T03:56:46;4.05;;;1.58;;
80623;SDS011;69981;44.768;9.600;2023-05-19T03:59:12;4.55;;;2.05;;
80623;SDS011;69981;44.768;9.600;2023-05-19T04:01:38;5.18;;;2.17;;
80623;SDS011;69981;44.768;9.600;2023-05-19T04:04:03;4.78;;;2.10;;
80623;SDS011;69981;44.768;9.600;2023-05-19T04:06:29;4.10;;;1.88;;
80623;SDS011;69981;44.768;9.600;2023-05-19T04:08:55;5.75;;;2.42;;
80623;SDS011;69981;44.768;9.600;2023-05-19T04:11:20;4.15;;;2.35;;
80623;SDS011;69981;44.768;9.600;2023-05-19T04:13:46;4.68;;;1.90;;
80623;SDS011;69981;44.768;9.600;2023-05-19T04:16:11;3.95;;;2.00;;
80623;SDS011;69981;44.768;9.600;2023-05-19T04:18:39;6.80;;;2.58;;
80623;SDS011;69981;44.768;9.600;2023-05-19T04:21:05;10.00;;;3.05;;
80623;SDS011;69981;44.768;9.600;2023-05-19T04:23:32;5.55;;;2.08;;
80623;SDS011;69981;44.768;9.600;2023-05-19T04:25:58;7.38;;;2.50;;
80623;SDS011;69981;44.768;9.600;2023-05-19T04:28:25;5.65;;;2.42;;
80623;SDS011;69981;44.768;9.600;2023-05-19T04:30:51;4.95;;;2.63;;
80623;SDS011;69981;44.768;9.600;2023-05-19T04:33:16;4.43;;;2.08;;
80623;SDS011;69981;44.768;9.600;2023-05-19T04:35:44;5.00;;;2.20;;
80623;SDS011;69981;44.768;9.600;2023-05-19T04:38:11;6.00;;;2.30;;
80623;SDS011;69981;44.768;9.600;2023-05-19T04:40:37;5.88;;;2.53;;
80623;SDS011;69981;44.768;9.600;2023-05-19T04:43:04;5.82;;;2.38;;
80623;SDS011;69981;44.768;9.600;2023-05-19T04:45:31;7.32;;;3.00;;
80623;SDS011;69981;44.768;9.600;2023-05-19T04:47:59;5.28;;;2.88;;
80623;SDS011;69981;44.768;9.600;2023-05-19T04:50:25;5.43;;;2.53;;
80623;SDS011;69981;44.768;9.600;2023-05-19T04:52:53;6.93;;;2.90;;
80623;SDS011;69981;44.768;9.600;2023-05-19T04:55:18;6.20;;;2.78;;
80623;SDS011;69981;44.768;9.600;2023-05-19T04:57:46;6.18;;;3.10;;
80623;SDS011;69981;44.768;9.600;2023-05-19T05:00:11;5.28;;;2.58;;
80623;SDS011;69981;44.768;9.600;2023-05-19T05:02:50;4.88;;;2.45;;
80623;SDS011;69981;44.768;9.600;2023-05-19T05:05:18;8.43;;;2.65;;
80623;SDS011;69981;44.768;9.600;2023-05-19T05:07:44;6.05;;;2.55;;
80623;SDS011;69981;44.768;9.600;2023-05-19T05:10:10;5.50;;;2.83;;
80623;SDS011;69981;44.768;9.600;2023-05-19T05:12:35;6.00;;;2.83;;
80623;SDS011;69981;44.768;9.600;2023-05-19T05:15:01;8.68;;;3.22;;
80623;SDS011;69981;44.768;9.600;2023-05-19T05:17:27;5.60;;;2.97;;
80623;SDS011;69981;44.768;9.600;2023-05-19T05:19:53;6.35;;;3.03;;
80623;SDS011;69981;44.768;9.600;2023-05-19T05:22:19;6.32;;;2.97;;
80623;SDS011;69981;44.768;9.600;2023-05-19T05:24:45;7.82;;;3.38;;
80623;SDS011;69981;44.768;9.600;2023-05-19T05:27:11;4.97;;;2.60;;
80623;SDS011;69981;44.768;9.600;2023-05-19T05:29:38;9.07;;;2.78;;
80623;SDS011;69981;44.768;9.600;2023-05-19T05:32:05;5.72;;;2.85;;
80623;SDS011;69981;44.768;9.600;2023-05-19T05:34:33;6.00;;;2.78;;
80623;SDS011;69981;44.768;9.600;2023-05-19T05:36:59;5.95;;;2.65;;
80623;SDS011;69981;44.768;9.600;2023-05-19T05:39:25;7.28;;;2.88;;
80623;SDS011;69981;44.768;9.600;2023-05-19T05:41:52;8.20;;;3.20;;
80623;SDS011;69981;44.768;9.600;2023-05-19T05:44:18;6.18;;;2.97;;
80623;SDS011;69981;44.768;9.600;2023-05-19T05:46:44;5.22;;;2.63;;
80623;SDS011;69981;44.768;9.600;2023-05-19T05:49:10;7.55;;;3.03;;
80623;SDS011;69981;44.768;9.600;2023-05-19T05:51:39;5.75;;;2.88;;
80623;SDS011;69981;44.768;9.600;2023-05-19T05:54:06;6.43;;;3.17;;
80623;SDS011;69981;44.768;9.600;2023-05-19T05:56:39;6.65;;;3.50;;
80623;SDS011;69981;44.768;9.600;2023-05-19T05:59:07;6.75;;;3.10;;
80623;SDS011;69981;44.768;9.600;2023-05-19T06:14:31;5.15;;;3.17;;
80623;SDS011;69981;44.768;9.600;2023-05-19T06:17:21;7.43;;;3.75;;
80623;SDS011;69981;44.768;9.600;2023-05-19T06:19:47;6.10;;;3.25;;
80623;SDS011;69981;44.768;9.600;2023-05-19T06:22:13;5.20;;;2.88;;
80623;SDS011;69981;44.768;9.600;2023-05-19T06:24:39;5.65;;;2.72;;
80623;SDS011;69981;44.768;9.600;2023-05-19T06:27:06;5.60;;;2.88;;
80623;SDS011;69981;44.768;9.600;2023-05-19T06:29:33;5.97;;;2.90;;
80623;SDS011;69981;44.768;9.600;2023-05-19T06:32:01;6.60;;;3.03;;
80623;SDS011;69981;44.768;9.600;2023-05-19T06:34:28;7.13;;;3.45;;
80623;SDS011;69981;44.768;9.600;2023-05-19T06:36:53;6.05;;;3.00;;
80623;SDS011;69981;44.768;9.600;2023-05-19T06:39:20;9.68;;;3.28;;
80623;SDS011;69981;44.768;9.600;2023-05-19T06:41:45;7.00;;;2.63;;
80623;SDS011;69981;44.768;9.600;2023-05-19T06:44:25;6.38;;;3.05;;
80623;SDS011;69981;44.768;9.600;2023-05-19T06:46:50;5.97;;;3.15;;
80623;SDS011;69981;44.768;9.600;2023-05-19T06:49:16;6.38;;;3.10;;
80623;SDS011;69981;44.768;9.600;2023-05-19T06:51:44;5.43;;;3.00;;
80623;SDS011;69981;44.768;9.600;2023-05-19T06:54:10;6.82;;;2.90;;
80623;SDS011;69981;44.768;9.600;2023-05-19T06:56:37;7.45;;;3.15;;
80623;SDS011;69981;44.768;9.600;2023-05-19T06:59:03;7.28;;;3.45;;
80623;SDS011;69981;44.768;9.600;2023-05-19T07:01:33;7.00;;;2.72;;
80623;SDS011;69981;44.768;9.600;2023-05-19T07:03:58;5.55;;;2.85;;
80623;SDS011;69981;44.768;9.600;2023-05-19T07:06:24;5.43;;;3.05;;
80623;SDS011;69981;44.768;9.600;2023-05-19T07:08:50;5.82;;;2.97;;
80623;SDS011;69981;44.768;9.600;2023-05-19T07:11:16;7.20;;;3.08;;
80623;SDS011;69981;44.768;9.600;2023-05-19T07:13:42;4.97;;;2.55;;
80623;SDS011;69981;44.768;9.600;2023-05-19T07:16:08;6.22;;;2.92;;
80623;SDS011;69981;44.768;9.600;2023-05-19T07:18:33;5.70;;;2.92;;
80623;SDS011;69981;44.768;9.600;2023-05-19T07:20:59;5.60;;;2.80;;
80623;SDS011;69981;44.768;9.600;2023-05-19T07:23:25;7.13;;;3.13;;
80623;SDS011;69981;44.768;9.600;2023-05-19T07:25:53;6.10;;;2.63;;
80623;SDS011;69981;44.768;9.600;2023-05-19T07:28:21;5.70;;;3.08;;
80623;SDS011;69981;44.768;9.600;2023-05-19T07:30:46;4.20;;;2.10;;
80623;SDS011;69981;44.768;9.600;2023-05-19T07:33:12;5.65;;;2.40;;
80623;SDS011;69981;44.768;9.600;2023-05-19T07:35:38;4.63;;;2.17;;
80623;SDS011;69981;44.768;9.600;2023-05-19T07:38:08;5.38;;;2.47;;
80623;SDS011;69981;44.768;9.600;2023-05-19T07:40:43;5.30;;;2.63;;
80623;SDS011;69981;44.768;9.600;2023-05-19T07:43:11;4.72;;;2.30;;
80623;SDS011;69981;44.768;9.600;2023-05-19T07:45:46;4.22;;;1.90;;
80623;SDS011;69981;44.768;9.600;2023-05-19T07:48:12;5.43;;;2.70;;
80623;SDS011;69981;44.768;9.600;2023-05-19T07:50:37;4.53;;;1.85;;
80623;SDS011;69981;44.768;9.600;2023-05-19T07:53:03;3.80;;;1.88;;
80623;SDS011;69981;44.768;9.600;2023-05-19T07:55:28;4.07;;;2.17;;
80623;SDS011;69981;44.768;9.600;2023-05-19T07:57:54;4.03;;;1.50;;
80623;SDS011;69981;44.768;9.600;2023-05-19T08:00:20;4.63;;;2.05;;
80623;SDS011;69981;44.768;9.600;2023-05-19T08:02:45;6.32;;;2.17;;
80623;SDS011;69981;44.768;9.600;2023-05-19T08:05:11;4.05;;;1.52;;
80623;SDS011;69981;44.768;9.600;2023-05-19T08:07:37;3.33;;;1.67;;
80623;SDS011;69981;44.768;9.600;2023-05-19T08:10:02;4.20;;;1.92;;
80623;SDS011;69981;44.768;9.600;2023-05-19T08:12:29;4.55;;;1.95;;
80623;SDS011;69981;44.768;9.600;2023-05-19T08:14:55;3.70;;;1.90;;
80623;SDS011;69981;44.768;9.600;2023-05-19T08:17:20;2.90;;;1.30;;
80623;SDS011;69981;44.768;9.600;2023-05-19T08:19:47;4.50;;;1.90;;
80623;SDS011;69981;44.768;9.600;2023-05-19T08:22:12;3.67;;;1.77;;
80623;SDS011;69981;44.768;9.600;2023-05-19T08:24:38;4.45;;;1.60;;
80623;SDS011;69981;44.768;9.600;2023-05-19T08:27:06;4.95;;;2.45;;
80623;SDS011;69981;44.768;9.600;2023-05-19T08:29:32;6.57;;;2.05;;
80623;SDS011;69981;44.768;9.600;2023-05-19T08:31:57;4.20;;;2.33;;
80623;SDS011;69981;44.768;9.600;2023-05-19T08:34:23;3.88;;;1.83;;
80623;SDS011;69981;44.768;9.600;2023-05-19T08:36:49;5.03;;;2.53;;
80623;SDS011;69981;44.768;9.600;2023-05-19T08:39:15;4.32;;;1.55;;
80623;SDS011;69981;44.768;9.600;2023-05-19T08:41:43;5.15;;;2.15;;
80623;SDS011;69981;44.768;9.600;2023-05-19T08:44:09;4.85;;;2.17;;
80623;SDS011;69981;44.768;9.600;2023-05-19T08:46:34;6.72;;;2.45;;
80623;SDS011;69981;44.768;9.600;2023-05-19T08:49:03;5.35;;;2.35;;
80623;SDS011;69981;44.768;9.600;2023-05-19T08:51:35;4.70;;;2.22;;
80623;SDS011;69981;44.768;9.600;2023-05-19T08:54:11;4.22;;;1.80;;
80623;SDS011;69981;44.768;9.600;2023-05-19T08:59:10;4.45;;;2.03;;
80623;SDS011;69981;44.768;9.600;2023-05-19T09:01:37;5.20;;;2.35;;
80623;SDS011;69981;44.768;9.600;2023-05-19T09:04:03;4.03;;;1.95;;
80623;SDS011;69981;44.768;9.600;2023-05-19T09:06:30;4.22;;;1.73;;
80623;SDS011;69981;44.768;9.600;2023-05-19T09:08:56;4.28;;;2.00;;
80623;SDS011;69981;44.768;9.600;2023-05-19T09:11:22;5.85;;;1.90;;
80623;SDS011;69981;44.768;9.600;2023-05-19T09:13:48;4.30;;;1.70;;
80623;SDS011;69981;44.768;9.600;2023-05-19T09:16:14;3.35;;;1.60;;
80623;SDS011;69981;44.768;9.600;2023-05-19T09:18:42;4.88;;;1.98;;
80623;SDS011;69981;44.768;9.600;2023-05-19T09:21:18;3.53;;;1.52;;
80623;SDS011;69981;44.768;9.600;2023-05-19T09:23:44;5.68;;;2.05;;
80623;SDS011;69981;44.768;9.600;2023-05-19T09:26:11;8.30;;;2.20;;
80623;SDS011;69981;44.768;9.600;2023-05-19T09:28:39;5.05;;;2.00;;
80623;SDS011;69981;44.768;9.600;2023-05-19T09:31:05;4.68;;;2.03;;
80623;SDS011;69981;44.768;9.600;2023-05-19T09:33:33;6.05;;;2.47;;
80623;SDS011;69981;44.768;9.600;2023-05-19T09:36:03;3.03;;;1.55;;
80623;SDS011;69981;44.768;9.600;2023-05-19T09:38:30;4.30;;;2.00;;
80623;SDS011;69981;44.768;9.600;2023-05-19T09:40:57;4.05;;;1.90;;
80623;SDS011;69981;44.768;9.600;2023-05-19T09:43:27;5.43;;;2.22;;
80623;SDS011;69981;44.768;9.600;2023-05-19T09:45:54;4.20;;;1.48;;
80623;SDS011;69981;44.768;9.600;2023-05-19T09:48:26;3.75;;;2.05;;
80623;SDS011;69981;44.768;9.600;2023-05-19T09:50:52;4.65;;;2.22;;
80623;SDS011;69981;44.768;9.600;2023-05-19T09:53:19;4.47;;;1.10;;
80623;SDS011;69981;44.768;9.600;2023-05-19T09:55:45;3.88;;;1.30;;
80623;SDS011;69981;44.768;9.600;2023-05-19T09:58:16;4.00;;;2.00;;
80623;SDS011;69981;44.768;9.600;2023-05-19T10:00:43;5.32;;;2.00;;
80623;SDS011;69981;44.768;9.600;2023-05-19T10:03:11;4.53;;;1.92;;
80623;SDS011;69981;44.768;9.600;2023-05-19T10:05:37;4.55;;;2.25;;
80623;SDS011;69981;44.768;9.600;2023-05-19T10:08:04;4.18;;;1.88;;
80623;SDS011;69981;44.768;9.600;2023-05-19T10:10:34;4.30;;;1.88;;
80623;SDS011;69981;44.768;9.600;2023-05-19T10:13:01;4.22;;;1.92;;
80623;SDS011;69981;44.768;9.600;2023-05-19T10:15:28;4.05;;;2.08;;
80623;SDS011;69981;44.768;9.600;2023-05-19T10:17:54;3.58;;;1.63;;
80623;SDS011;69981;44.768;9.600;2023-05-19T10:31:43;4.55;;;2.17;;
80623;SDS011;69981;44.768;9.600;2023-05-19T10:36:44;2.55;;;1.15;;
80623;SDS011;69981;44.768;9.600;2023-05-19T10:39:16;3.10;;;1.38;;
80623;SDS011;69981;44.768;9.600;2023-05-19T10:45:03;2.35;;;0.80;;
80623;SDS011;69981;44.768;9.600;2023-05-19T10:47:31;2.15;;;1.10;;
80623;SDS011;69981;44.768;9.600;2023-05-19T10:49:59;2.88;;;1.13;;
80623;SDS011;69981;44.768;9.600;2023-05-19T10:52:25;3.25;;;1.35;;
80623;SDS011;69981;44.768;9.600;2023-05-19T10:54:53;3.53;;;1.55;;
80623;SDS011;69981;44.768;9.600;2023-05-19T10:57:20;2.85;;;1.40;;
80623;SDS011;69981;44.768;9.600;2023-05-19T10:59:51;3.25;;;1.02;;
80623;SDS011;69981;44.768;9.600;2023-05-19T11:05:14;2.45;;;1.20;;
80623;SDS011;69981;44.768;9.600;2023-05-19T11:07:53;2.97;;;1.20;;
80623;SDS011;69981;44.768;9.600;2023-05-19T11:10:24;2.22;;;0.98;;
80623;SDS011;69981;44.768;9.600;2023-05-19T11:12:49;1.85;;;0.82;;
80623;SDS011;69981;44.768;9.600;2023-05-19T11:15:16;3.05;;;1.63;;
80623;SDS011;69981;44.768;9.600;2023-05-19T11:17:44;2.20;;;1.10;;
80623;SDS011;69981;44.768;9.600;2023-05-19T11:20:22;2.40;;;0.82;;
80623;SDS011;69981;44.768;9.600;2023-05-19T11:25:48;1.70;;;0.77;;
80623;SDS011;69981;44.768;9.600;2023-05-19T11:28:16;4.18;;;1.40;;
80623;SDS011;69981;44.768;9.600;2023-05-19T11:30:49;3.08;;;1.40;;
80623;SDS011;69981;44.768;9.600;2023-05-19T11:33:18;2.63;;;1.20;;
80623;SDS011;69981;44.768;9.600;2023-05-19T11:35:45;2.90;;;1.42;;
80623;SDS011;69981;44.768;9.600;2023-05-19T11:38:11;4.55;;;1.83;;
80623;SDS011;69981;44.768;9.600;2023-05-19T11:40:39;3.70;;;1.63;;
80623;SDS011;69981;44.768;9.600;2023-05-19T11:43:06;3.50;;;1.58;;
80623;SDS011;69981;44.768;9.600;2023-05-19T11:45:31;3.67;;;1.52;;
80623;SDS011;69981;44.768;9.600;2023-05-19T11:47:58;2.78;;;1.48;;
80623;SDS011;69981;44.768;9.600;2023-05-19T11:50:24;3.33;;;1.50;;
80623;SDS011;69981;44.768;9.600;2023-05-19T11:52:54;2.63;;;1.20;;
80623;SDS011;69981;44.768;9.600;2023-05-19T11:55:21;4.00;;;1.05;;
80623;SDS011;69981;44.768;9.600;2023-05-19T11:57:56;2.95;;;1.23;;
80623;SDS011;69981;44.768;9.600;2023-05-19T12:00:23;3.63;;;1.70;;
80623;SDS011;69981;44.768;9.600;2023-05-19T12:02:49;4.30;;;1.55;;
80623;SDS011;69981;44.768;9.600;2023-05-19T12:05:21;3.08;;;1.42;;
80623;SDS011;69981;44.768;9.600;2023-05-19T12:07:48;3.08;;;1.27;;
80623;SDS011;69981;44.768;9.600;2023-05-19T12:10:16;6.20;;;1.50;;
80623;SDS011;69981;44.768;9.600;2023-05-19T12:12:44;3.42;;;1.50;;
80623;SDS011;69981;44.768;9.600;2023-05-19T12:15:10;2.35;;;1.20;;
80623;SDS011;69981;44.768;9.600;2023-05-19T12:17:36;3.10;;;1.30;;
80623;SDS011;69981;44.768;9.600;2023-05-19T12:20:01;3.08;;;1.90;;
80623;SDS011;69981;44.768;9.600;2023-05-19T12:22:29;3.38;;;1.52;;
80623;SDS011;69981;44.768;9.600;2023-05-19T12:24:54;3.03;;;1.33;;
80623;SDS011;69981;44.768;9.600;2023-05-19T12:27:23;3.20;;;1.60;;
80623;SDS011;69981;44.768;9.600;2023-05-19T12:29:53;5.80;;;1.70;;
80623;SDS011;69981;44.768;9.600;2023-05-19T12:32:23;3.58;;;1.75;;
80623;SDS011;69981;44.768;9.600;2023-05-19T12:34:49;5.70;;;1.92;;
80623;SDS011;69981;44.768;9.600;2023-05-19T12:37:16;3.42;;;1.92;;
80623;SDS011;69981;44.768;9.600;2023-05-19T12:39:41;3.08;;;1.30;;
80623;SDS011;69981;44.768;9.600;2023-05-19T12:42:08;2.58;;;1.30;;
80623;SDS011;69981;44.768;9.600;2023-05-19T12:44:40;5.03;;;1.90;;
80623;SDS011;69981;44.768;9.600;2023-05-19T12:47:08;3.10;;;1.60;;
80623;SDS011;69981;44.768;9.600;2023-05-19T12:49:33;3.58;;;1.52;;
80623;SDS011;69981;44.768;9.600;2023-05-19T12:52:02;3.40;;;1.75;;
80623;SDS011;69981;44.768;9.600;2023-05-19T12:54:34;3.22;;;1.73;;
80623;SDS011;69981;44.768;9.600;2023-05-19T12:57:00;7.38;;;3.13;;
80623;SDS011;69981;44.768;9.600;2023-05-19T12:59:25;4.05;;;1.40;;
80623;SDS011;69981;44.768;9.600;2023-05-19T13:01:54;4.10;;;2.00;;
80623;SDS011;69981;44.768;9.600;2023-05-19T13:04:23;4.68;;;1.52;;
80623;SDS011;69981;44.768;9.600;2023-05-19T13:06:49;5.10;;;1.98;;
80623;SDS011;69981;44.768;9.600;2023-05-19T13:09:16;3.65;;;1.48;;
80623;SDS011;69981;44.768;9.600;2023-05-19T13:11:43;5.78;;;2.22;;
80623;SDS011;69981;44.768;9.600;2023-05-19T13:14:08;4.15;;;2.00;;
80623;SDS011;69981;44.768;9.600;2023-05-19T13:16:34;3.28;;;1.63;;
80623;SDS011;69981;44.768;9.600;2023-05-19T13:19:00;2.78;;;1.40;;
80623;SDS011;69981;44.768;9.600;2023-05-19T13:21:25;4.97;;;2.05;;
80623;SDS011;69981;44.768;9.600;2023-05-19T13:23:51;1.88;;;0.93;;
80623;SDS011;69981;44.768;9.600;2023-05-19T13:26:17;3.30;;;1.10;;
80623;SDS011;69981;44.768;9.600;2023-05-19T13:28:43;2.97;;;1.15;;
80623;SDS011;69981;44.768;9.600;2023-05-19T13:31:08;1.88;;;0.88;;
80623;SDS011;69981;44.768;9.600;2023-05-19T13:33:34;2.33;;;1.02;;
80623;SDS011;69981;44.768;9.600;2023-05-19T13:36:00;2.90;;;0.90;;
80623;SDS011;69981;44.768;9.600;2023-05-19T13:38:25;1.92;;;0.80;;
80623;SDS011;69981;44.768;9.600;2023-05-19T13:40:51;2.42;;;0.80;;
80623;SDS011;69981;44.768;9.600;2023-05-19T13:43:16;3.10;;;1.33;;
80623;SDS011;69981;44.768;9.600;2023-05-19T13:45:42;3.22;;;1.27;;
80623;SDS011;69981;44.768;9.600;2023-05-19T13:48:08;2.72;;;1.25;;
80623;SDS011;69981;44.768;9.600;2023-05-19T13:50:35;2.25;;;1.02;;
80623;SDS011;69981;44.768;9.600;2023-05-19T13:53:01;2.20;;;1.10;;
80623;SDS011;69981;44.768;9.600;2023-05-19T13:55:27;4.65;;;1.67;;
80623;SDS011;69981;44.768;9.600;2023-05-19T13:57:53;3.63;;;1.65;;
80623;SDS011;69981;44.768;9.600;2023-05-19T14:00:18;2.22;;;0.85;;
80623;SDS011;69981;44.768;9.600;2023-05-19T14:02:45;2.83;;;1.33;;
80623;SDS011;69981;44.768;9.600;2023-05-19T14:05:10;3.42;;;1.50;;
80623;SDS011;69981;44.768;9.600;2023-05-19T14:07:36;3.53;;;1.00;;
80623;SDS011;69981;44.768;9.600;2023-05-19T14:10:02;2.50;;;1.13;;
80623;SDS011;69981;44.768;9.600;2023-05-19T14:12:30;3.72;;;1.13;;
80623;SDS011;69981;44.768;9.600;2023-05-19T14:14:56;3.45;;;1.30;;
80623;SDS011;69981;44.768;9.600;2023-05-19T14:17:21;2.72;;;1.30;;
80623;SDS011;69981;44.768;9.600;2023-05-19T14:19:47;2.92;;;1.40;;
80623;SDS011;69981;44.768;9.600;2023-05-19T14:22:12;2.65;;;1.20;;
80623;SDS011;69981;44.768;9.600;2023-05-19T14:24:38;2.03;;;0.88;;
80623;SDS011;69981;44.768;9.600;2023-05-19T14:27:04;3.35;;;1.48;;
80623;SDS011;69981;44.768;9.600;2023-05-19T14:29:29;2.85;;;1.33;;
80623;SDS011;69981;44.768;9.600;2023-05-19T14:31:55;2.97;;;1.10;;
80623;SDS011;69981;44.768;9.600;2023-05-19T14:34:21;2.55;;;0.82;;
80623;SDS011;69981;44.768;9.600;2023-05-19T14:36:47;3.08;;;1.30;;
80623;SDS011;69981;44.768;9.600;2023-05-19T14:39:12;3.95;;;1.08;;
80623;SDS011;69981;44.768;9.600;2023-05-19T14:41:38;4.82;;;1.98;;
80623;SDS011;69981;44.768;9.600;2023-05-19T14:44:04;3.90;;;1.40;;
80623;SDS011;69981;44.768;9.600;2023-05-19T14:46:29;2.63;;;1.05;;
80623;SDS011;69981;44.768;9.600;2023-05-19T14:48:55;1.73;;;0.80;;
80623;SDS011;69981;44.768;9.600;2023-05-19T14:51:21;2.50;;;1.08;;
80623;SDS011;69981;44.768;9.600;2023-05-19T14:53:46;3.22;;;1.35;;
80623;SDS011;69981;44.768;9.600;2023-05-19T14:56:14;4.60;;;1.80;;
80623;SDS011;69981;44.768;9.600;2023-05-19T14:58:40;3.10;;;1.33;;
80623;SDS011;69981;44.768;9.600;2023-05-19T15:01:05;3.17;;;1.30;;
80623;SDS011;69981;44.768;9.600;2023-05-19T15:03:31;3.78;;;1.80;;
80623;SDS011;69981;44.768;9.600;2023-05-19T15:05:56;3.13;;;1.70;;
80623;SDS011;69981;44.768;9.600;2023-05-19T15:08:22;2.85;;;1.30;;
80623;SDS011;69981;44.768;9.600;2023-05-19T15:10:47;4.85;;;1.35;;
80623;SDS011;69981;44.768;9.600;2023-05-19T15:13:14;2.67;;;1.10;;
80623;SDS011;69981;44.768;9.600;2023-05-19T15:15:40;3.38;;;1.70;;
80623;SDS011;69981;44.768;9.600;2023-05-19T15:18:05;4.35;;;1.60;;
80623;SDS011;69981;44.768;9.600;2023-05-19T15:20:31;3.90;;;1.48;;
80623;SDS011;69981;44.768;9.600;2023-05-19T15:22:56;3.30;;;1.60;;
80623;SDS011;69981;44.768;9.600;2023-05-19T15:25:22;2.95;;;1.20;;
80623;SDS011;69981;44.768;9.600;2023-05-19T15:27:47;3.28;;;1.42;;
80623;SDS011;69981;44.768;9.600;2023-05-19T15:30:13;3.13;;;1.50;;
80623;SDS011;69981;44.768;9.600;2023-05-19T15:32:38;2.10;;;0.77;;
80623;SDS011;69981;44.768;9.600;2023-05-19T15:35:04;3.58;;;1.30;;
80623;SDS011;69981;44.768;9.600;2023-05-19T15:37:30;2.10;;;0.88;;
80623;SDS011;69981;44.768;9.600;2023-05-19T15:39:55;2.33;;;1.00;;
80623;SDS011;69981;44.768;9.600;2023-05-19T15:42:21;4.93;;;1.60;;
80623;SDS011;69981;44.768;9.600;2023-05-19T15:44:46;1.77;;;0.82;;
80623;SDS011;69981;44.768;9.600;2023-05-19T15:47:12;2.78;;;1.27;;
80623;SDS011;69981;44.768;9.600;2023-05-19T15:49:37;5.50;;;1.67;;